Time;durP1;ratioP1;P1;durP2;ratioP2;P2;SDS_P1;SDS_P2;PMS_P1;PMS_P2;Temp;Humidity;BMP_temperature;BMP_pressure;BME280_temperature;BME280_humidity;BME280_pressure;Samples;Min_cycle;Max_cycle;Signal;HPM_P1;HPM_P2
2022/07/27 00:00:16;;;;;;;1.50;1.00;;;17.70;89.20;;;;;;5045188;28;20486;-76
2022/07/27 00:02:43;;;;;;;1.50;1.00;;;17.70;89.30;;;;;;5038007;28;20520;-78
2022/07/27 00:05:10;;;;;;;1.50;0.90;;;17.60;89.20;;;;;;5038985;28;20955;-77
2022/07/27 00:07:39;;;;;;;1.43;1.00;;;17.60;89.40;;;;;;5027804;28;20479;-77
2022/07/27 00:10:07;;;;;;;1.50;1.00;;;17.50;89.50;;;;;;5051572;28;20469;-76
2022/07/27 00:12:34;;;;;;;1.47;0.97;;;17.50;89.80;;;;;;5020394;28;20486;-77
2022/07/27 00:15:01;;;;;;;1.50;0.93;;;17.50;90.00;;;;;;5033309;28;20463;-77
2022/07/27 00:17:28;;;;;;;1.50;1.00;;;17.50;90.40;;;;;;5028014;28;20483;-76
2022/07/27 00:19:56;;;;;;;1.50;0.90;;;17.50;90.20;;;;;;5030794;28;20621;-77
2022/07/27 00:22:23;;;;;;;1.47;0.90;;;17.40;90.20;;;;;;5026059;28;21098;-78
2022/07/27 00:24:51;;;;;;;1.50;1.00;;;17.40;90.00;;;;;;5038471;28;20462;-76
2022/07/27 00:27:19;;;;;;;1.40;0.90;;;17.40;89.90;;;;;;5021016;28;20502;-75
2022/07/27 00:29:46;;;;;;;1.43;1.00;;;17.40;89.70;;;;;;5050601;28;20458;-75
2022/07/27 00:32:13;;;;;;;1.47;0.90;;;17.30;90.00;;;;;;5034674;28;20490;-76
2022/07/27 00:34:40;;;;;;;1.50;1.00;;;17.30;89.80;;;;;;5039653;28;20703;-76
2022/07/27 00:37:07;;;;;;;1.50;1.00;;;17.30;90.10;;;;;;5025775;28;20471;-76
2022/07/27 00:39:34;;;;;;;1.47;1.00;;;17.30;90.10;;;;;;5034088;28;20494;-78
2022/07/27 00:42:03;;;;;;;1.47;1.00;;;17.30;90.10;;;;;;5020382;28;20511;-77
2022/07/27 00:44:32;;;;;;;1.50;1.00;;;17.30;89.90;;;;;;5042774;28;20488;-77
2022/07/27 00:46:59;;;;;;;1.50;1.00;;;17.30;89.90;;;;;;5034635;28;20487;-76
2022/07/27 00:49:27;;;;;;;1.50;1.00;;;17.40;90.00;;;;;;5034200;28;20521;-76
2022/07/27 00:51:55;;;;;;;1.50;0.90;;;17.40;90.10;;;;;;5032493;28;20486;-77
2022/07/27 00:54:22;;;;;;;1.50;0.93;;;17.30;90.20;;;;;;5053714;28;20959;-77
2022/07/27 00:56:50;;;;;;;1.47;0.93;;;17.40;90.20;;;;;;5025040;28;20489;-77
2022/07/27 00:59:20;;;;;;;1.43;1.00;;;17.30;89.90;;;;;;5033728;28;20494;-77
2022/07/27 01:01:47;;;;;;;1.50;1.00;;;17.40;90.20;;;;;;5033009;28;20481;-77
2022/07/27 01:04:14;;;;;;;1.50;1.00;;;17.40;89.90;;;;;;5042133;28;20459;-77
2022/07/27 01:06:41;;;;;;;1.50;1.00;;;17.30;90.00;;;;;;5030790;28;20481;-77
2022/07/27 01:11:52;;;;;;;1.50;1.00;;;17.30;90.40;;;;;;5020978;28;20501;-78
2022/07/27 01:14:21;;;;;;;1.40;0.90;;;17.20;90.50;;;;;;5047750;28;20498;-77
2022/07/27 01:16:48;;;;;;;1.47;0.90;;;17.20;90.90;;;;;;5024872;28;20490;-77
2022/07/27 01:19:15;;;;;;;1.47;0.90;;;17.20;90.80;;;;;;5044591;28;20458;-76
2022/07/27 01:21:43;;;;;;;1.50;0.90;;;17.10;91.30;;;;;;5032532;28;21059;-77
2022/07/27 01:24:11;;;;;;;1.47;0.93;;;17.20;91.10;;;;;;5038044;28;20838;-76
2022/07/27 01:26:38;;;;;;;1.47;0.90;;;17.20;91.20;;;;;;5024026;28;20482;-77
2022/07/27 01:29:06;;;;;;;1.47;0.90;;;17.10;91.30;;;;;;5031549;28;20477;-76
2022/07/27 01:31:33;;;;;;;1.50;1.00;;;17.10;91.60;;;;;;5022625;28;20483;-77
2022/07/27 01:34:00;;;;;;;1.43;1.00;;;17.10;91.90;;;;;;5036462;28;20479;-77
2022/07/27 01:36:27;;;;;;;1.40;1.00;;;17.10;91.60;;;;;;5022190;28;20483;-75
2022/07/27 01:38:55;;;;;;;1.50;1.00;;;17.10;91.90;;;;;;5032868;28;20475;-76
2022/07/27 01:41:22;;;;;;;1.50;1.00;;;17.10;91.90;;;;;;5014235;28;20482;-78
2022/07/27 01:43:49;;;;;;;1.47;1.00;;;17.10;91.90;;;;;;5042090;28;20462;-78
2022/07/27 01:46:17;;;;;;;1.50;1.00;;;17.10;92.00;;;;;;5027998;28;20483;-79
2022/07/27 01:48:44;;;;;;;1.50;1.00;;;17.10;91.90;;;;;;5033428;28;20521;-78
2022/07/27 01:51:10;;;;;;;1.50;1.00;;;17.10;92.00;;;;;;5023505;28;20552;-76
2022/07/27 01:53:37;;;;;;;1.50;1.00;;;17.00;91.90;;;;;;5037924;28;20577;-79
2022/07/27 01:56:10;;;;;;;1.50;1.00;;;17.00;92.40;;;;;;5035355;28;20458;-78
2022/07/27 01:58:37;;;;;;;1.50;0.97;;;17.00;92.40;;;;;;5034989;28;20963;-77
2022/07/27 02:01:05;;;;;;;1.50;1.00;;;16.90;92.70;;;;;;5039552;28;20534;-78
2022/07/27 02:03:32;;;;;;;1.50;1.00;;;16.90;93.00;;;;;;5041744;28;20502;-79
2022/07/27 02:05:59;;;;;;;1.50;1.00;;;16.80;93.30;;;;;;5028867;28;20552;-79
2022/07/27 02:08:27;;;;;;;1.50;1.00;;;16.80;93.20;;;;;;5030670;28;20459;-78
2022/07/27 02:13:42;;;;;;;1.50;1.00;;;16.80;93.40;;;;;;5031042;28;20479;-79
2022/07/27 02:16:13;;;;;;;1.50;1.00;;;16.70;93.50;;;;;;5029669;28;20479;-76
2022/07/27 02:19:01;;;;;;;;;;;;;;;;;;;;;
2022/07/27 02:21:40;;;;;;;1.50;0.90;;;16.70;93.80;;;;;;5037369;28;21062;-77
2022/07/27 02:24:19;;;;;;;1.50;1.00;;;16.60;93.90;;;;;;5058457;28;20484;-76
2022/07/27 02:26:49;;;;;;;1.50;1.00;;;16.60;94.00;;;;;;5037441;28;21052;-78
2022/07/27 02:29:32;;;;;;;1.50;0.90;;;16.50;94.30;;;;;;5062843;28;21042;-75
2022/07/27 02:32:03;;;;;;;1.50;1.00;;;16.50;94.40;;;;;;5034825;28;20562;-77
2022/07/27 02:34:36;;;;;;;1.50;1.00;;;16.40;94.70;;;;;;5048998;28;20455;-77
2022/07/27 02:37:05;;;;;;;1.50;1.00;;;16.30;94.80;;;;;;5032379;28;20478;-78
2022/07/27 02:39:33;;;;;;;1.50;1.13;;;16.30;95.10;;;;;;5061850;28;20453;-77
2022/07/27 02:42:05;;;;;;;1.50;1.00;;;16.20;95.40;;;;;;5045466;28;20512;-76
2022/07/27 02:44:40;;;;;;;1.50;1.00;;;16.20;95.60;;;;;;5045621;28;20463;-78
2022/07/27 02:47:21;;;;;;;1.50;1.00;;;16.10;95.50;;;;;;5035266;28;20467;-77
2022/07/27 02:49:49;;;;;;;1.50;0.93;;;16.10;95.60;;;;;;5049860;28;20458;-79
2022/07/27 02:52:21;;;;;;;1.47;0.90;;;16.10;95.70;;;;;;5037672;28;20561;-77
2022/07/27 02:54:56;;;;;;;1.50;0.90;;;16.10;95.60;;;;;;5058288;28;20485;-78
2022/07/27 02:57:24;;;;;;;1.50;1.00;;;16.10;95.50;;;;;;5028320;28;20482;-79
2022/07/27 03:00:10;;;;;;;1.50;1.00;;;16.10;95.40;;;;;;5051291;28;21000;-77
2022/07/27 03:02:47;;;;;;;1.50;1.00;;;16.10;96.00;;;;;;5042484;28;20474;-78
2022/07/27 03:05:18;;;;;;;1.50;1.00;;;16.00;95.70;;;;;;5060817;28;20454;-78
2022/07/27 03:07:52;;;;;;;1.50;1.00;;;16.00;95.90;;;;;;5033891;28;20593;-79
2022/07/27 03:13:11;;;;;;;1.50;1.17;;;15.90;96.70;;;;;;5036515;28;20488;-78
2022/07/27 03:15:40;;;;;;;1.50;1.00;;;15.90;96.60;;;;;;5051010;28;20475;-77
2022/07/27 03:18:29;;;;;;;1.50;1.10;;;15.80;96.30;;;;;;5053110;28;20566;-79
2022/07/27 03:20:57;;;;;;;1.50;0.90;;;15.80;96.50;;;;;;5027518;28;20504;-75
2022/07/27 03:23:25;;;;;;;1.50;1.00;;;15.70;96.70;;;;;;5066633;28;20485;-76
2022/07/27 03:26:32;;;;;;;1.50;1.00;;;15.70;97.00;;;;;;5050447;28;20458;-78
2022/07/27 03:29:05;;;;;;;1.50;1.00;;;15.70;97.00;;;;;;5014422;28;20511;-79
2022/07/27 03:31:34;;;;;;;1.50;1.00;;;15.60;97.40;;;;;;5047329;28;20466;-78
2022/07/27 03:34:10;;;;;;;1.50;1.00;;;15.60;97.30;;;;;;5053025;28;20538;-79
2022/07/27 03:36:45;;;;;;;1.50;1.00;;;15.60;97.40;;;;;;5047753;28;20462;-77
2022/07/27 03:39:25;;;;;;;1.50;1.00;;;15.50;97.50;;;;;;5046995;28;20604;-78
2022/07/27 03:42:08;;;;;;;;;;;;;;;;;;;;;
2022/07/27 03:44:56;;;;;;;1.50;1.00;;;15.50;98.20;;;;;;5061869;28;20474;-77
2022/07/27 03:47:34;;;;;;;1.50;1.00;;;15.50;97.80;;;;;;5037406;28;20509;-77
2022/07/27 03:50:11;;;;;;;1.50;1.00;;;15.40;97.90;;;;;;5050982;28;20467;-78
2022/07/27 03:52:52;;;;;;;1.50;1.00;;;15.40;98.00;;;;;;5048286;28;20485;-78
2022/07/27 03:55:34;;;;;;;1.50;1.00;;;15.40;98.20;;;;;;5059228;28;20462;-79
2022/07/27 03:58:08;;;;;;;1.50;1.00;;;15.30;98.20;;;;;;5031004;28;20505;-78
2022/07/27 04:00:57;;;;;;;;;;;;;;;;;;;;;
2022/07/27 04:03:31;;;;;;;1.50;1.00;;;15.30;98.20;;;;;;5021495;28;20565;-79
2022/07/27 04:06:22;;;;;;;1.50;1.00;;;15.30;98.20;;;;;;5044145;28;20539;-80
2022/07/27 04:09:06;;;;;;;1.50;1.00;;;15.20;98.20;;;;;;5035290;28;20464;-78
2022/07/27 04:15:17;;;;;;;1.50;1.00;;;15.20;98.20;;;;;;4984171;28;20462;-79
2022/07/27 04:18:25;;;;;;;1.50;1.00;;;15.20;98.20;;;;;;5030468;28;20848;-80
2022/07/27 04:21:07;;;;;;;1.50;1.10;;;15.20;98.20;;;;;;5029992;28;20463;-78
2022/07/27 04:23:37;;;;;;;1.50;1.00;;;15.20;98.20;;;;;;5053613;28;21011;-77
2022/07/27 04:26:57;;;;;;;1.50;1.00;;;15.20;98.20;;;;;;5046148;28;20462;-78
2022/07/27 04:32:35;;;;;;;1.50;1.00;;;15.20;98.20;;;;;;4980538;28;20486;-78
2022/07/27 04:35:14;;;;;;;1.50;1.00;;;15.20;98.20;;;;;;5056449;28;20469;-77
2022/07/27 04:43:16;;;;;;;1.50;1.10;;;15.20;98.20;;;;;;5025947;28;20475;-76
2022/07/27 04:45:50;;;;;;;1.50;1.00;;;15.20;98.20;;;;;;5061266;28;20469;-76
2022/07/27 04:48:18;;;;;;;1.50;1.00;;;15.20;98.20;;;;;;5031016;28;20471;-78
2022/07/27 04:50:52;;;;;;;1.50;0.97;;;15.20;98.20;;;;;;5054696;28;20467;-78
2022/07/27 04:53:34;;;;;;;1.50;1.00;;;15.20;98.20;;;;;;5028108;28;20481;-78
2022/07/27 04:56:24;;;;;;;1.50;1.00;;;15.20;98.20;;;;;;5049001;28;20462;-77
2022/07/27 04:59:13;;;;;;;1.50;1.00;;;15.20;98.20;;;;;;5042006;28;20458;-78
2022/07/27 05:01:56;;;;;;;1.50;1.00;;;15.20;98.20;;;;;;5041606;28;20487;-77
2022/07/27 05:04:24;;;;;;;1.50;1.00;;;15.30;98.20;;;;;;5053191;28;21021;-77
2022/07/27 05:06:57;;;;;;;1.50;1.00;;;15.30;98.20;;;;;;5052500;28;20538;-77
2022/07/27 05:09:39;;;;;;;1.50;1.00;;;15.40;98.20;;;;;;5060612;28;20585;-77
2022/07/27 05:12:24;;;;;;;1.50;1.07;;;15.40;98.20;;;;;;5047622;28;20505;-79
2022/07/27 05:14:58;;;;;;;1.50;1.00;;;15.60;98.20;;;;;;5056507;28;20463;-78
2022/07/27 05:17:32;;;;;;;1.50;1.00;;;15.80;98.20;;;;;;5043932;28;20482;-78
2022/07/27 05:20:04;;;;;;;1.50;1.00;;;16.00;98.20;;;;;;5068706;28;20466;-77
2022/07/27 05:22:41;;;;;;;1.50;1.00;;;16.10;98.20;;;;;;5056893;28;20537;-77
2022/07/27 05:25:37;;;;;;;1.50;1.00;;;16.20;98.20;;;;;;5059080;28;20513;-78
2022/07/27 05:28:08;;;;;;;1.50;0.90;;;16.40;98.20;;;;;;5038103;28;20546;-77
2022/07/27 05:30:55;;;;;;;1.50;1.00;;;16.70;98.20;;;;;;5044402;28;20447;-77
2022/07/27 05:33:24;;;;;;;1.50;1.00;;;17.00;98.20;;;;;;5025189;28;20493;-77
2022/07/27 05:36:04;;;;;;;1.50;1.00;;;17.20;96.90;;;;;;5045869;28;20485;-78
2022/07/27 05:39:08;;;;;;;1.50;0.90;;;17.30;95.50;;;;;;5055804;28;20469;-78
2022/07/27 05:41:46;;;;;;;1.50;1.00;;;17.60;96.20;;;;;;5019957;28;20544;-78
2022/07/27 05:44:17;;;;;;;1.50;1.00;;;17.70;95.10;;;;;;5055121;28;20483;-77
2022/07/27 05:46:47;;;;;;;1.50;1.00;;;17.80;94.60;;;;;;5025170;28;20483;-77
2022/07/27 05:49:23;;;;;;;1.40;0.90;;;17.90;94.30;;;;;;5050134;28;20527;-78
2022/07/27 05:52:07;;;;;;;1.50;1.00;;;18.00;93.30;;;;;;5049225;28;20987;-77
2022/07/27 05:54:38;;;;;;;1.50;0.93;;;18.10;92.80;;;;;;5066971;28;20508;-76
2022/07/27 06:00:14;;;;;;;1.50;1.00;;;18.50;92.50;;;;;;4999299;28;20457;-76
2022/07/27 06:05:24;;;;;;;1.50;0.90;;;18.90;90.40;;;;;;4987617;28;20470;-78
2022/07/27 06:14:28;;;;;;;1.47;0.90;;;19.50;87.60;;;;;;4953409;28;20494;-78
2022/07/27 06:17:14;;;;;;;1.50;1.00;;;19.60;87.20;;;;;;4993278;28;20495;-79
2022/07/27 06:19:48;;;;;;;1.50;0.90;;;19.70;86.40;;;;;;4996119;28;20544;-80
2022/07/27 06:22:17;;;;;;;1.60;1.27;;;19.80;86.70;;;;;;5017930;28;20554;-77
2022/07/27 06:28:22;;;;;;;;;;;;;;;;;;;;;
2022/07/27 06:31:20;;;;;;;1.50;0.90;;;20.20;84.60;;;;;;5045208;28;20450;-78
2022/07/27 06:33:48;;;;;;;1.50;0.90;;;20.40;83.90;;;;;;5023822;28;20845;-77
2022/07/27 06:36:15;;;;;;;1.40;0.90;;;20.50;84.20;;;;;;5034375;28;21194;-77
2022/07/27 06:38:43;;;;;;;1.50;0.90;;;20.60;83.40;;;;;;5038217;28;20463;-77
2022/07/27 06:41:10;;;;;;;1.50;0.90;;;20.60;82.70;;;;;;5027555;28;20487;-78
2022/07/27 06:43:38;;;;;;;1.50;0.90;;;20.60;83.30;;;;;;5047390;28;20463;-77
2022/07/27 06:46:06;;;;;;;1.50;0.90;;;20.70;83.50;;;;;;5026359;28;20480;-77
2022/07/27 06:48:35;;;;;;;1.50;0.90;;;20.80;83.00;;;;;;5054231;28;20562;-77
2022/07/27 06:51:02;;;;;;;1.50;0.90;;;20.90;82.40;;;;;;5038509;28;20486;-77
2022/07/27 06:53:30;;;;;;;1.50;0.90;;;21.10;81.60;;;;;;5037317;28;20491;-77
2022/07/27 06:56:02;;;;;;;1.50;0.90;;;21.30;79.90;;;;;;5042329;28;20992;-76
2022/07/27 06:58:39;;;;;;;1.50;0.90;;;21.30;79.50;;;;;;5033653;28;20465;-78
2022/07/27 07:01:15;;;;;;;1.50;0.90;;;21.40;78.90;;;;;;5022020;28;20489;-78
2022/07/27 07:03:44;;;;;;;1.50;0.90;;;21.30;78.30;;;;;;5000348;28;20470;-78
2022/07/27 07:06:25;;;;;;;1.50;0.90;;;21.10;78.50;;;;;;5053734;28;20668;-78
2022/07/27 07:08:56;;;;;;;1.50;0.90;;;21.10;79.00;;;;;;5030567;28;20871;-78
2022/07/27 07:11:24;;;;;;;1.50;0.90;;;21.10;79.20;;;;;;5026775;28;20489;-76
2022/07/27 07:13:51;;;;;;;1.50;0.90;;;20.90;80.00;;;;;;5043822;28;20523;-76
2022/07/27 07:16:18;;;;;;;1.47;0.90;;;21.00;79.70;;;;;;5033536;28;20542;-75
2022/07/27 07:18:47;;;;;;;1.50;0.90;;;21.00;78.90;;;;;;5037396;28;21026;-77
2022/07/27 07:21:24;;;;;;;1.50;0.90;;;21.00;79.30;;;;;;5035607;28;20480;-76
2022/07/27 07:23:51;;;;;;;1.50;0.87;;;21.00;79.40;;;;;;5034083;28;20462;-77
2022/07/27 07:26:18;;;;;;;1.50;0.90;;;21.20;79.00;;;;;;5024662;28;21011;-78
2022/07/27 07:28:46;;;;;;;1.43;0.90;;;21.30;78.90;;;;;;5046118;28;20458;-76
2022/07/27 07:31:14;;;;;;;1.50;0.90;;;21.50;78.60;;;;;;5040138;28;20513;-77
2022/07/27 07:33:41;;;;;;;1.50;0.90;;;21.60;78.50;;;;;;5046465;28;20557;-77
2022/07/27 07:36:33;;;;;;;1.50;0.87;;;21.80;77.60;;;;;;5028247;28;20566;-76
2022/07/27 07:39:17;;;;;;;1.50;0.90;;;22.00;76.70;;;;;;5040722;28;20462;-77
2022/07/27 07:41:44;;;;;;;1.50;0.90;;;22.30;76.70;;;;;;5023451;28;20490;-76
2022/07/27 07:44:12;;;;;;;1.47;0.90;;;22.50;75.00;;;;;;5036123;28;20809;-76
2022/07/27 07:46:40;;;;;;;1.47;0.90;;;22.60;74.70;;;;;;5022651;28;20478;-78
2022/07/27 07:49:07;;;;;;;1.50;0.90;;;22.80;76.40;;;;;;5035178;28;20533;-78
2022/07/27 07:51:36;;;;;;;1.43;0.90;;;23.00;73.70;;;;;;5009403;28;20475;-78
2022/07/27 07:54:03;;;;;;;1.50;0.90;;;23.30;74.80;;;;;;5032543;28;20483;-78
2022/07/27 07:56:30;;;;;;;1.50;0.83;;;23.40;72.90;;;;;;5033977;28;20552;-76
2022/07/27 07:58:58;;;;;;;1.43;0.90;;;23.50;73.30;;;;;;5030701;28;20466;-77
2022/07/27 08:01:25;;;;;;;1.47;0.90;;;23.50;73.30;;;;;;5025064;28;21075;-78
2022/07/27 08:03:56;;;;;;;1.47;0.90;;;23.70;73.10;;;;;;5034222;28;20535;-78
2022/07/27 08:06:23;;;;;;;1.50;0.90;;;23.70;72.90;;;;;;5036238;28;20493;-77
2022/07/27 08:08:52;;;;;;;1.47;0.90;;;23.80;72.20;;;;;;5035534;28;20518;-78
2022/07/27 08:11:19;;;;;;;1.50;0.90;;;23.90;71.70;;;;;;5022776;28;20509;-77
2022/07/27 08:13:47;;;;;;;1.50;0.90;;;24.00;71.10;;;;;;5056110;28;20521;-78
2022/07/27 08:16:15;;;;;;;1.50;0.90;;;24.00;71.30;;;;;;5037246;28;20578;-79
2022/07/27 08:18:42;;;;;;;1.47;0.90;;;24.00;71.10;;;;;;5033869;28;20497;-77
2022/07/27 08:21:13;;;;;;;1.47;0.90;;;23.90;70.90;;;;;;5036968;28;20487;-76
2022/07/27 08:23:40;;;;;;;1.50;0.90;;;24.00;71.30;;;;;;5046141;28;20846;-77
2022/07/27 08:26:09;;;;;;;1.47;0.90;;;24.30;71.00;;;;;;5030511;28;20538;-78
2022/07/27 08:28:36;;;;;;;1.47;0.90;;;24.50;71.30;;;;;;5043431;28;20462;-78
2022/07/27 08:31:03;;;;;;;1.47;0.90;;;24.80;70.30;;;;;;5032615;28;20482;-78
2022/07/27 08:33:31;;;;;;;1.47;0.90;;;24.90;70.00;;;;;;5036414;28;21000;-78
2022/07/27 08:35:58;;;;;;;1.50;0.90;;;25.10;69.50;;;;;;5034853;28;20512;-78
2022/07/27 08:38:26;;;;;;;1.50;0.90;;;25.30;68.80;;;;;;5033773;28;20462;-79
2022/07/27 08:40:55;;;;;;;1.47;0.80;;;25.40;68.00;;;;;;5026573;28;20496;-77
2022/07/27 08:43:24;;;;;;;1.47;0.80;;;25.50;70.10;;;;;;5029750;28;20469;-79
2022/07/27 08:45:57;;;;;;;1.50;0.90;;;25.80;69.70;;;;;;5026259;28;20496;-78
2022/07/27 08:48:25;;;;;;;1.50;0.80;;;25.80;66.70;;;;;;5035274;28;20473;-79
2022/07/27 08:50:54;;;;;;;1.60;1.37;;;25.70;67.30;;;;;;5039839;28;20473;-78
2022/07/27 08:53:35;;;;;;;1.40;0.80;;;25.80;67.80;;;;;;5042737;28;20469;-77
2022/07/27 08:56:06;;;;;;;1.47;0.80;;;26.10;67.50;;;;;;5038400;28;20462;-76
2022/07/27 08:58:35;;;;;;;1.40;0.80;;;26.30;65.40;;;;;;5043802;28;20458;-77
2022/07/27 09:01:02;;;;;;;1.50;0.80;;;26.40;65.20;;;;;;5037413;28;20556;-78
2022/07/27 09:03:30;;;;;;;1.40;0.80;;;26.60;64.40;;;;;;5045899;28;20488;-76
2022/07/27 09:06:04;;;;;;;1.40;0.83;;;26.70;65.20;;;;;;5035731;28;20461;-78
2022/07/27 09:08:32;;;;;;;1.50;0.90;;;26.50;64.90;;;;;;5031151;28;20500;-76
2022/07/27 09:11:27;;;;;;;1.40;0.80;;;26.20;64.40;;;;;;5024718;28;20948;-78
2022/07/27 09:18:02;;;;;;;1.47;0.80;;;25.10;66.50;;;;;;5012440;28;20485;-79
2022/07/27 09:21:14;;;;;;;1.47;0.80;;;24.70;67.40;;;;;;5026227;28;20965;-79
2022/07/27 09:24:40;;;;;;;1.47;0.90;;;24.30;67.50;;;;;;5035683;28;20502;-76
2022/07/27 09:44:22;;;;;;;1.43;0.90;;;23.80;70.30;;;;;;5078115;23;20532;-78
2022/07/27 09:47:21;;;;;;;1.47;0.90;;;24.20;69.00;;;;;;5028044;28;20582;-80
2022/07/27 10:00:31;;;;;;;1.50;0.80;;;25.90;65.60;;;;;;4934897;29;20480;-79
2022/07/27 10:03:13;;;;;;;1.47;0.90;;;25.70;66.50;;;;;;4965231;28;20489;-79
2022/07/27 10:05:44;;;;;;;1.47;0.87;;;25.70;66.00;;;;;;5014613;28;20471;-79
2022/07/27 10:08:12;;;;;;;1.43;0.87;;;25.20;65.50;;;;;;4962346;28;20553;-79
2022/07/27 10:10:40;;;;;;;1.47;0.87;;;24.90;65.30;;;;;;5016532;28;20525;-79
2022/07/27 10:13:08;;;;;;;1.50;0.83;;;24.60;65.10;;;;;;5020244;28;20546;-78
2022/07/27 10:15:49;;;;;;;1.50;0.90;;;24.20;65.50;;;;;;5015919;28;20530;-78
2022/07/27 10:18:27;;;;;;;1.47;0.90;;;24.20;66.50;;;;;;4990037;28;20472;-77
2022/07/27 10:20:57;;;;;;;1.47;0.90;;;24.20;64.90;;;;;;5007163;28;21052;-78
2022/07/27 10:23:27;;;;;;;1.47;0.90;;;24.10;65.60;;;;;;5025023;28;20492;-77
2022/07/27 10:26:19;;;;;;;1.43;0.80;;;24.10;65.90;;;;;;5009359;28;20526;-77
2022/07/27 10:28:52;;;;;;;1.47;0.90;;;24.10;66.10;;;;;;5008691;28;21005;-79
2022/07/27 10:31:24;;;;;;;1.47;0.90;;;24.00;67.20;;;;;;5007302;28;20479;-78
2022/07/27 10:33:52;;;;;;;1.50;0.90;;;24.00;68.00;;;;;;5027497;28;20455;-78
2022/07/27 10:36:50;;;;;;;1.47;0.83;;;24.10;67.60;;;;;;5016581;28;20486;-77
2022/07/27 10:39:33;;;;;;;1.43;0.90;;;24.10;67.90;;;;;;5020015;28;20522;-77
2022/07/27 10:42:23;;;;;;;1.43;0.90;;;24.10;68.40;;;;;;5006000;28;20552;-77
2022/07/27 10:44:55;;;;;;;1.43;0.80;;;23.90;69.70;;;;;;5012040;28;20460;-77
2022/07/27 10:47:38;;;;;;;1.47;0.90;;;23.60;70.40;;;;;;5013037;28;20483;-76
2022/07/27 10:50:28;;;;;;;1.50;0.90;;;23.50;70.00;;;;;;5007448;28;20472;-76
2022/07/27 10:52:58;;;;;;;1.47;0.83;;;23.70;70.60;;;;;;5004737;28;20557;-77
2022/07/27 10:55:45;;;;;;;1.47;0.90;;;23.90;70.00;;;;;;5024840;28;20508;-78
2022/07/27 10:58:47;;;;;;;1.47;0.90;;;24.00;69.40;;;;;;5019051;28;20523;-77
2022/07/27 11:01:18;;;;;;;1.50;0.90;;;23.80;68.60;;;;;;5000541;28;20561;-76
2022/07/27 11:03:54;;;;;;;1.50;0.90;;;23.50;69.80;;;;;;5022469;28;20460;-77
2022/07/27 11:06:27;;;;;;;1.47;0.90;;;23.20;70.90;;;;;;5008242;28;20480;-77
2022/07/27 11:08:55;;;;;;;1.47;0.87;;;23.10;71.00;;;;;;5025581;28;20472;-75
2022/07/27 11:11:24;;;;;;;1.40;0.80;;;23.10;70.70;;;;;;4994264;28;20888;-74
2022/07/27 11:13:53;;;;;;;1.47;0.87;;;23.00;71.20;;;;;;5006471;28;20495;-77
2022/07/27 11:16:20;;;;;;;1.50;0.90;;;22.90;70.30;;;;;;4999102;28;21072;-77
2022/07/27 11:19:02;;;;;;;1.47;0.90;;;22.80;70.20;;;;;;5019806;28;20468;-77
2022/07/27 11:21:33;;;;;;;1.47;0.90;;;22.80;70.70;;;;;;5007871;28;20490;-77
2022/07/27 11:24:04;;;;;;;1.43;0.90;;;22.80;69.90;;;;;;5023641;28;20456;-77
2022/07/27 11:26:38;;;;;;;1.47;0.90;;;22.80;69.20;;;;;;5011826;28;20475;-77
2022/07/27 11:29:08;;;;;;;1.43;0.90;;;23.10;69.20;;;;;;5026638;28;20460;-77
2022/07/27 11:31:37;;;;;;;1.47;0.87;;;23.60;67.50;;;;;;5002668;28;20950;-76
2022/07/27 11:34:05;;;;;;;1.47;0.90;;;24.10;67.80;;;;;;5017281;28;20460;-77
2022/07/27 11:36:41;;;;;;;1.47;0.90;;;24.60;65.80;;;;;;5019221;28;20574;-77
2022/07/27 11:39:10;;;;;;;1.47;0.90;;;25.10;64.90;;;;;;5021369;28;21015;-77
2022/07/27 11:41:38;;;;;;;1.50;0.90;;;25.10;65.90;;;;;;5002833;28;20533;-77
2022/07/27 11:44:08;;;;;;;1.50;0.90;;;25.30;64.90;;;;;;5002095;28;20471;-76
2022/07/27 11:46:41;;;;;;;1.43;0.80;;;25.30;64.90;;;;;;5004760;28;20491;-75
2022/07/27 11:49:11;;;;;;;1.50;0.90;;;24.90;63.70;;;;;;5016230;28;20459;-77
2022/07/27 11:51:43;;;;;;;1.43;0.90;;;24.80;65.80;;;;;;5001919;28;20487;-76
2022/07/27 11:54:22;;;;;;;1.47;0.90;;;25.00;67.20;;;;;;5015937;28;20467;-76
2022/07/27 11:56:52;;;;;;;1.43;0.80;;;25.20;67.10;;;;;;5002891;28;20482;-76
2022/07/27 11:59:21;;;;;;;1.50;0.80;;;25.40;65.20;;;;;;5016071;28;20495;-77
2022/07/27 12:01:51;;;;;;;1.50;0.80;;;25.70;63.40;;;;;;5006883;28;20490;-77
2022/07/27 12:04:23;;;;;;;1.50;0.90;;;25.90;63.10;;;;;;5026729;28;20522;-76
2022/07/27 12:07:09;;;;;;;1.50;0.90;;;26.00;61.60;;;;;;5011408;28;20483;-77
2022/07/27 12:09:38;;;;;;;1.47;0.83;;;26.40;62.60;;;;;;5014683;28;20471;-77
2022/07/27 12:12:12;;;;;;;1.50;0.80;;;26.80;62.60;;;;;;4998054;28;20500;-77
2022/07/27 12:14:42;;;;;;;1.43;0.80;;;27.10;60.40;;;;;;5009901;28;20494;-77
2022/07/27 12:17:20;;;;;;;1.43;0.80;;;27.20;59.70;;;;;;5009999;28;20491;-78
2022/07/27 12:19:58;;;;;;;1.43;0.80;;;27.30;59.00;;;;;;5013061;28;20501;-78
2022/07/27 12:22:59;;;;;;;1.50;1.07;;;27.50;59.10;;;;;;5000843;28;20574;-77
2022/07/27 12:25:31;;;;;;;1.50;0.80;;;27.70;58.90;;;;;;5000481;28;20597;-77
2022/07/27 12:28:01;;;;;;;1.40;0.80;;;28.10;60.20;;;;;;5014958;28;20858;-74
2022/07/27 12:30:33;;;;;;;1.43;0.80;;;28.40;57.40;;;;;;5014551;28;20459;-77
2022/07/27 12:33:01;;;;;;;1.47;0.80;;;28.50;56.80;;;;;;5012866;28;20841;-75
2022/07/27 12:35:33;;;;;;;1.40;0.80;;;28.40;57.10;;;;;;5020239;28;20569;-78
2022/07/27 12:38:02;;;;;;;1.47;0.80;;;27.90;56.20;;;;;;5016201;28;20580;-77
2022/07/27 12:40:35;;;;;;;1.50;0.80;;;27.20;58.40;;;;;;5010522;28;20506;-76
2022/07/27 12:43:04;;;;;;;1.47;0.80;;;26.80;59.30;;;;;;5000149;28;20727;-77
2022/07/27 12:45:34;;;;;;;1.40;0.80;;;26.30;60.00;;;;;;5013198;28;20490;-76
2022/07/27 12:48:07;;;;;;;1.50;1.00;;;25.90;61.30;;;;;;5017261;28;20479;-76
2022/07/27 12:50:35;;;;;;;1.50;0.90;;;25.40;61.90;;;;;;5007755;28;20456;-77
2022/07/27 12:53:03;;;;;;;1.47;0.90;;;25.10;61.40;;;;;;5001002;28;20988;-76
2022/07/27 12:55:31;;;;;;;1.47;0.80;;;25.10;63.20;;;;;;5011684;28;20483;-76
2022/07/27 12:57:58;;;;;;;1.47;0.90;;;25.00;62.20;;;;;;5019999;28;20630;-76
2022/07/27 13:00:28;;;;;;;1.43;0.90;;;24.70;62.40;;;;;;5019178;28;20455;-76
2022/07/27 13:02:55;;;;;;;1.47;0.80;;;24.60;63.40;;;;;;5017846;28;20486;-76
2022/07/27 13:05:23;;;;;;;1.50;0.90;;;24.70;64.10;;;;;;5019829;28;20557;-77
2022/07/27 13:07:52;;;;;;;1.47;0.83;;;24.70;62.90;;;;;;5020882;28;20730;-75
2022/07/27 13:10:19;;;;;;;1.40;0.80;;;24.70;62.80;;;;;;5012257;28;20472;-76
2022/07/27 13:12:48;;;;;;;1.50;0.90;;;24.80;63.50;;;;;;5014973;28;21019;-76
2022/07/27 13:15:16;;;;;;;1.47;0.90;;;24.80;63.20;;;;;;5012211;28;20968;-76
2022/07/27 13:17:44;;;;;;;1.47;0.90;;;24.80;61.20;;;;;;5014756;28;20479;-77
2022/07/27 13:20:13;;;;;;;1.43;0.80;;;24.70;62.30;;;;;;5015204;28;21012;-77
2022/07/27 13:22:41;;;;;;;1.47;0.90;;;24.80;62.60;;;;;;5005235;28;20478;-77
2022/07/27 13:25:11;;;;;;;1.47;0.80;;;24.90;61.80;;;;;;5013139;28;20460;-76
2022/07/27 13:27:39;;;;;;;1.40;0.90;;;24.90;61.50;;;;;;5016352;28;20475;-77
2022/07/27 13:30:08;;;;;;;1.43;0.90;;;25.00;62.00;;;;;;5018918;28;20966;-75
2022/07/27 13:32:35;;;;;;;1.47;0.90;;;25.20;61.70;;;;;;5015333;28;20487;-76
2022/07/27 13:35:04;;;;;;;1.47;0.90;;;25.30;60.90;;;;;;5010987;28;20482;-77
2022/07/27 13:37:31;;;;;;;1.47;0.90;;;25.20;61.10;;;;;;5013196;28;20543;-75
2022/07/27 13:39:59;;;;;;;1.47;0.80;;;24.90;62.40;;;;;;5015232;28;20482;-77
2022/07/27 13:42:28;;;;;;;1.47;0.80;;;24.70;62.40;;;;;;5019179;28;20482;-76
2022/07/27 13:45:00;;;;;;;1.40;0.87;;;24.50;62.90;;;;;;5013793;28;20464;-78
2022/07/27 13:47:27;;;;;;;1.50;0.80;;;24.30;62.50;;;;;;5003428;28;20562;-76
2022/07/27 13:49:54;;;;;;;1.47;0.90;;;24.10;63.10;;;;;;5012457;28;20491;-76
2022/07/27 13:52:24;;;;;;;1.50;1.00;;;24.10;63.70;;;;;;5001694;28;21064;-77
2022/07/27 13:54:51;;;;;;;1.50;0.90;;;24.10;62.10;;;;;;5012385;28;20456;-78
2022/07/27 13:57:18;;;;;;;1.43;0.90;;;24.10;62.60;;;;;;5018378;28;20483;-78
2022/07/27 13:59:47;;;;;;;1.47;0.80;;;24.20;62.70;;;;;;5016865;28;20567;-77
2022/07/27 14:02:14;;;;;;;1.47;0.83;;;24.20;62.70;;;;;;5010007;28;20495;-77
2022/07/27 14:04:41;;;;;;;1.47;0.87;;;24.30;62.90;;;;;;5022500;28;20461;-77
2022/07/27 14:07:09;;;;;;;1.43;0.90;;;24.40;62.20;;;;;;5005521;28;20842;-76
2022/07/27 14:12:21;;;;;;;1.47;0.90;;;24.60;61.30;;;;;;5013418;28;20564;-78
2022/07/27 14:14:49;;;;;;;1.43;0.90;;;24.80;60.80;;;;;;5015277;28;20472;-76
2022/07/27 14:17:17;;;;;;;1.40;0.80;;;24.80;60.90;;;;;;5003274;28;20942;-78
2022/07/27 14:19:44;;;;;;;1.50;0.90;;;24.80;61.00;;;;;;5011792;28;20851;-77
2022/07/27 14:22:11;;;;;;;1.47;0.90;;;24.90;60.10;;;;;;5001966;28;20488;-77
2022/07/27 14:24:38;;;;;;;1.43;0.80;;;25.00;60.80;;;;;;5014180;28;20464;-78
2022/07/27 14:27:06;;;;;;;1.43;0.80;;;24.80;60.80;;;;;;5012978;28;20558;-77
2022/07/27 14:29:33;;;;;;;1.43;0.90;;;24.60;61.20;;;;;;5017315;28;20941;-78